sensor_id;sensor_type;location;lat;lon;timestamp;temperature;humidity
20650;DHT22;10484;48.736;9.332;2023-09-30T00:01:01;18.70;1.00
20650;DHT22;10484;48.736;9.332;2023-09-30T00:03:27;18.70;1.00
20650;DHT22;10484;48.736;9.332;2023-09-30T00:05:53;18.70;1.00
20650;DHT22;10484;48.736;9.332;2023-09-30T00:08:18;18.60;1.00
20650;DHT22;10484;48.736;9.332;2023-09-30T00:10:45;18.60;1.00
20650;DHT22;10484;48.736;9.332;2023-09-30T00:13:11;18.50;1.00
20650;DHT22;10484;48.736;9.332;2023-09-30T00:15:36;18.50;1.00
20650;DHT22;10484;48.736;9.332;2023-09-30T00:18:02;18.50;1.00
20650;DHT22;10484;48.736;9.332;2023-09-30T00:20:28;18.50;1.00
20650;DHT22;10484;48.736;9.332;2023-09-30T00:22:54;18.50;1.00
20650;DHT22;10484;48.736;9.332;2023-09-30T00:25:19;18.40;1.00
20650;DHT22;10484;48.736;9.332;2023-09-30T00:27:49;18.40;1.00
20650;DHT22;10484;48.736;9.332;2023-09-30T00:30:14;18.30;1.00
20650;DHT22;10484;48.736;9.332;2023-09-30T00:32:40;18.30;1.00
20650;DHT22;10484;48.736;9.332;2023-09-30T00:35:06;18.20;1.00
20650;DHT22;10484;48.736;9.332;2023-09-30T00:37:40;18.20;1.00
20650;DHT22;10484;48.736;9.332;2023-09-30T00:40:07;18.20;1.00
20650;DHT22;10484;48.736;9.332;2023-09-30T00:42:37;18.10;1.00
20650;DHT22;10484;48.736;9.332;2023-09-30T00:45:03;18.10;1.00
20650;DHT22;10484;48.736;9.332;2023-09-30T00:47:30;18.00;1.00
20650;DHT22;10484;48.736;9.332;2023-09-30T00:49:56;18.00;1.00
20650;DHT22;10484;48.736;9.332;2023-09-30T00:52:22;18.00;1.00
20650;DHT22;10484;48.736;9.332;2023-09-30T00:54:48;17.90;1.00
20650;DHT22;10484;48.736;9.332;2023-09-30T00:57:16;17.90;1.00
20650;DHT22;10484;48.736;9.332;2023-09-30T00:59:42;17.90;1.00
20650;DHT22;10484;48.736;9.332;2023-09-30T01:02:08;17.80;1.00
20650;DHT22;10484;48.736;9.332;2023-09-30T01:04:33;17.80;1.00
20650;DHT22;10484;48.736;9.332;2023-09-30T01:06:59;17.80;1.00
20650;DHT22;10484;48.736;9.332;2023-09-30T01:09:25;17.80;1.00
20650;DHT22;10484;48.736;9.332;2023-09-30T01:11:51;17.70;1.00
20650;DHT22;10484;48.736;9.332;2023-09-30T01:14:26;17.70;1.00
20650;DHT22;10484;48.736;9.332;2023-09-30T01:16:52;17.70;1.00
20650;DHT22;10484;48.736;9.332;2023-09-30T01:19:18;17.70;1.00
20650;DHT22;10484;48.736;9.332;2023-09-30T01:21:43;17.60;1.00
20650;DHT22;10484;48.736;9.332;2023-09-30T01:24:14;17.60;1.00
20650;DHT22;10484;48.736;9.332;2023-09-30T01:26:39;17.60;1.00
20650;DHT22;10484;48.736;9.332;2023-09-30T01:29:05;17.60;1.00
20650;DHT22;10484;48.736;9.332;2023-09-30T01:31:30;17.50;1.00
20650;DHT22;10484;48.736;9.332;2023-09-30T01:33:56;17.50;1.00
20650;DHT22;10484;48.736;9.332;2023-09-30T01:36:22;17.50;1.00
20650;DHT22;10484;48.736;9.332;2023-09-30T01:38:48;17.50;1.00
20650;DHT22;10484;48.736;9.332;2023-09-30T01:41:13;17.50;1.00
20650;DHT22;10484;48.736;9.332;2023-09-30T01:43:39;17.40;1.00
20650;DHT22;10484;48.736;9.332;2023-09-30T01:46:04;17.40;1.00
20650;DHT22;10484;48.736;9.332;2023-09-30T01:48:31;17.40;1.00
20650;DHT22;10484;48.736;9.332;2023-09-30T01:50:57;17.40;1.00
20650;DHT22;10484;48.736;9.332;2023-09-30T01:53:23;17.40;1.00
20650;DHT22;10484;48.736;9.332;2023-09-30T01:55:48;17.40;1.00
20650;DHT22;10484;48.736;9.332;2023-09-30T01:58:14;17.40;1.00
20650;DHT22;10484;48.736;9.332;2023-09-30T02:00:39;17.40;1.00
20650;DHT22;10484;48.736;9.332;2023-09-30T02:03:05;17.30;1.00
20650;DHT22;10484;48.736;9.332;2023-09-30T02:05:31;17.30;1.00
20650;DHT22;10484;48.736;9.332;2023-09-30T02:07:56;17.30;1.00
20650;DHT22;10484;48.736;9.332;2023-09-30T02:10:22;17.30;1.00
20650;DHT22;10484;48.736;9.332;2023-09-30T02:12:47;17.30;1.00
20650;DHT22;10484;48.736;9.332;2023-09-30T02:15:14;17.30;1.00
20650;DHT22;10484;48.736;9.332;2023-09-30T02:17:39;17.30;1.00
20650;DHT22;10484;48.736;9.332;2023-09-30T02:20:06;17.30;1.00
20650;DHT22;10484;48.736;9.332;2023-09-30T02:22:38;17.30;1.00
20650;DHT22;10484;48.736;9.332;2023-09-30T02:25:04;17.30;1.00
20650;DHT22;10484;48.736;9.332;2023-09-30T02:27:32;17.30;1.00
20650;DHT22;10484;48.736;9.332;2023-09-30T02:29:58;17.30;1.00
20650;DHT22;10484;48.736;9.332;2023-09-30T02:32:24;17.30;1.00
20650;DHT22;10484;48.736;9.332;2023-09-30T02:34:49;17.20;1.00
20650;DHT22;10484;48.736;9.332;2023-09-30T02:37:16;17.20;1.00
20650;DHT22;10484;48.736;9.332;2023-09-30T02:39:43;17.20;1.00
20650;DHT22;10484;48.736;9.332;2023-09-30T02:42:10;17.10;1.00
20650;DHT22;10484;48.736;9.332;2023-09-30T02:44:36;17.10;1.00
20650;DHT22;10484;48.736;9.332;2023-09-30T02:47:01;17.10;1.00
20650;DHT22;10484;48.736;9.332;2023-09-30T02:49:27;17.00;1.00
20650;DHT22;10484;48.736;9.332;2023-09-30T02:51:53;17.00;1.00
20650;DHT22;10484;48.736;9.332;2023-09-30T02:54:18;16.90;1.00
20650;DHT22;10484;48.736;9.332;2023-09-30T02:56:44;16.90;1.00
20650;DHT22;10484;48.736;9.332;2023-09-30T02:59:12;16.90;1.00
20650;DHT22;10484;48.736;9.332;2023-09-30T03:01:38;16.80;1.00
20650;DHT22;10484;48.736;9.332;2023-09-30T03:04:04;16.80;1.00
20650;DHT22;10484;48.736;9.332;2023-09-30T03:06:35;16.80;1.00
20650;DHT22;10484;48.736;9.332;2023-09-30T03:09:04;16.80;1.00
20650;DHT22;10484;48.736;9.332;2023-09-30T03:11:32;16.80;1.00
20650;DHT22;10484;48.736;9.332;2023-09-30T03:13:59;16.80;1.00
20650;DHT22;10484;48.736;9.332;2023-09-30T03:16:25;16.80;1.00
20650;DHT22;10484;48.736;9.332;2023-09-30T03:18:51;16.80;1.00
20650;DHT22;10484;48.736;9.332;2023-09-30T03:21:16;16.80;1.00
20650;DHT22;10484;48.736;9.332;2023-09-30T03:23:43;16.80;1.00
20650;DHT22;10484;48.736;9.332;2023-09-30T03:26:09;16.80;1.00
20650;DHT22;10484;48.736;9.332;2023-09-30T03:28:38;16.80;1.00
20650;DHT22;10484;48.736;9.332;2023-09-30T03:31:05;16.80;1.00
20650;DHT22;10484;48.736;9.332;2023-09-30T03:33:37;16.80;1.00
20650;DHT22;10484;48.736;9.332;2023-09-30T03:36:03;16.80;1.00
20650;DHT22;10484;48.736;9.332;2023-09-30T03:38:29;16.80;1.00
20650;DHT22;10484;48.736;9.332;2023-09-30T03:40:54;16.80;1.00
20650;DHT22;10484;48.736;9.332;2023-09-30T03:43:23;16.70;1.00
20650;DHT22;10484;48.736;9.332;2023-09-30T03:45:49;16.70;1.00
20650;DHT22;10484;48.736;9.332;2023-09-30T03:48:15;16.70;1.00
20650;DHT22;10484;48.736;9.332;2023-09-30T03:50:41;16.70;1.00
20650;DHT22;10484;48.736;9.332;2023-09-30T03:53:07;16.70;1.00
20650;DHT22;10484;48.736;9.332;2023-09-30T03:55:33;16.70;1.00
20650;DHT22;10484;48.736;9.332;2023-09-30T03:57:59;16.70;1.00
20650;DHT22;10484;48.736;9.332;2023-09-30T04:00:25;16.60;1.00
20650;DHT22;10484;48.736;9.332;2023-09-30T04:02:51;16.70;1.00
20650;DHT22;10484;48.736;9.332;2023-09-30T04:05:23;16.60;1.00
20650;DHT22;10484;48.736;9.332;2023-09-30T04:07:55;16.60;1.00
20650;DHT22;10484;48.736;9.332;2023-09-30T04:10:21;16.50;1.00
20650;DHT22;10484;48.736;9.332;2023-09-30T04:12:48;16.60;1.00
20650;DHT22;10484;48.736;9.332;2023-09-30T04:15:14;16.60;1.00
20650;DHT22;10484;48.736;9.332;2023-09-30T04:17:39;16.50;1.00
20650;DHT22;10484;48.736;9.332;2023-09-30T04:20:08;16.50;1.00
20650;DHT22;10484;48.736;9.332;2023-09-30T04:22:42;16.50;1.00
20650;DHT22;10484;48.736;9.332;2023-09-30T04:25:14;16.50;1.00
20650;DHT22;10484;48.736;9.332;2023-09-30T04:27:42;16.50;1.00
20650;DHT22;10484;48.736;9.332;2023-09-30T04:30:08;16.40;1.00
20650;DHT22;10484;48.736;9.332;2023-09-30T04:32:36;16.50;1.00
20650;DHT22;10484;48.736;9.332;2023-09-30T04:35:03;16.40;1.00
20650;DHT22;10484;48.736;9.332;2023-09-30T04:37:29;16.40;1.00
20650;DHT22;10484;48.736;9.332;2023-09-30T04:39:55;16.30;1.00
20650;DHT22;10484;48.736;9.332;2023-09-30T04:42:20;16.30;1.00
20650;DHT22;10484;48.736;9.332;2023-09-30T04:44:46;16.30;1.00
20650;DHT22;10484;48.736;9.332;2023-09-30T04:47:11;16.40;1.00
20650;DHT22;10484;48.736;9.332;2023-09-30T04:49:37;16.40;1.00
20650;DHT22;10484;48.736;9.332;2023-09-30T04:52:03;16.40;1.00
20650;DHT22;10484;48.736;9.332;2023-09-30T04:54:30;16.40;1.00
20650;DHT22;10484;48.736;9.332;2023-09-30T04:56:57;16.30;1.00
20650;DHT22;10484;48.736;9.332;2023-09-30T04:59:22;16.40;1.00
20650;DHT22;10484;48.736;9.332;2023-09-30T05:01:50;16.40;1.00
20650;DHT22;10484;48.736;9.332;2023-09-30T05:04:16;16.40;1.00
20650;DHT22;10484;48.736;9.332;2023-09-30T05:06:41;16.30;1.00
20650;DHT22;10484;48.736;9.332;2023-09-30T05:09:07;16.30;1.00
20650;DHT22;10484;48.736;9.332;2023-09-30T05:11:33;16.30;1.00
20650;DHT22;10484;48.736;9.332;2023-09-30T05:14:00;16.20;1.00
20650;DHT22;10484;48.736;9.332;2023-09-30T05:16:26;16.30;1.00
20650;DHT22;10484;48.736;9.332;2023-09-30T05:18:52;16.30;1.00
20650;DHT22;10484;48.736;9.332;2023-09-30T05:21:18;16.30;1.00
20650;DHT22;10484;48.736;9.332;2023-09-30T05:23:43;16.30;1.00
20650;DHT22;10484;48.736;9.332;2023-09-30T05:26:09;16.30;1.00
20650;DHT22;10484;48.736;9.332;2023-09-30T05:28:34;16.30;1.00
20650;DHT22;10484;48.736;9.332;2023-09-30T05:31:00;16.30;1.00
20650;DHT22;10484;48.736;9.332;2023-09-30T05:33:27;16.30;1.00
20650;DHT22;10484;48.736;9.332;2023-09-30T05:35:53;16.30;1.00
20650;DHT22;10484;48.736;9.332;2023-09-30T05:38:20;16.30;1.00
20650;DHT22;10484;48.736;9.332;2023-09-30T05:40:46;16.20;1.00
20650;DHT22;10484;48.736;9.332;2023-09-30T05:43:12;16.20;1.00
20650;DHT22;10484;48.736;9.332;2023-09-30T05:45:39;16.20;1.00
20650;DHT22;10484;48.736;9.332;2023-09-30T05:48:14;16.30;1.00
20650;DHT22;10484;48.736;9.332;2023-09-30T05:50:41;16.30;1.00
20650;DHT22;10484;48.736;9.332;2023-09-30T05:53:08;16.30;1.00
20650;DHT22;10484;48.736;9.332;2023-09-30T05:55:35;16.30;1.00
20650;DHT22;10484;48.736;9.332;2023-09-30T05:58:02;16.30;1.00
20650;DHT22;10484;48.736;9.332;2023-09-30T06:00:28;16.30;1.00
20650;DHT22;10484;48.736;9.332;2023-09-30T06:02:56;16.30;1.00
20650;DHT22;10484;48.736;9.332;2023-09-30T06:05:22;16.30;1.00
20650;DHT22;10484;48.736;9.332;2023-09-30T06:07:48;16.30;1.00
20650;DHT22;10484;48.736;9.332;2023-09-30T06:10:14;16.30;1.00
20650;DHT22;10484;48.736;9.332;2023-09-30T06:12:45;16.30;1.00
20650;DHT22;10484;48.736;9.332;2023-09-30T06:15:12;16.30;1.00
20650;DHT22;10484;48.736;9.332;2023-09-30T06:17:38;16.30;1.00
20650;DHT22;10484;48.736;9.332;2023-09-30T06:20:05;16.30;1.00
20650;DHT22;10484;48.736;9.332;2023-09-30T06:22:41;16.30;1.00
20650;DHT22;10484;48.736;9.332;2023-09-30T06:25:07;16.30;1.00
20650;DHT22;10484;48.736;9.332;2023-09-30T06:27:33;16.30;1.00
20650;DHT22;10484;48.736;9.332;2023-09-30T06:29:58;16.30;1.00
20650;DHT22;10484;48.736;9.332;2023-09-30T06:32:24;16.40;1.00
20650;DHT22;10484;48.736;9.332;2023-09-30T06:34:50;16.40;1.00
20650;DHT22;10484;48.736;9.332;2023-09-30T06:37:15;16.40;1.00
20650;DHT22;10484;48.736;9.332;2023-09-30T06:39:41;16.40;1.00
20650;DHT22;10484;48.736;9.332;2023-09-30T06:42:06;16.40;1.00
20650;DHT22;10484;48.736;9.332;2023-09-30T06:44:32;16.40;1.00
20650;DHT22;10484;48.736;9.332;2023-09-30T06:46:58;16.40;1.00
20650;DHT22;10484;48.736;9.332;2023-09-30T06:49:23;16.50;1.00
20650;DHT22;10484;48.736;9.332;2023-09-30T06:51:50;16.50;1.00
20650;DHT22;10484;48.736;9.332;2023-09-30T06:54:15;16.50;1.00
20650;DHT22;10484;48.736;9.332;2023-09-30T06:56:41;16.50;1.00
20650;DHT22;10484;48.736;9.332;2023-09-30T06:59:06;16.50;1.00
20650;DHT22;10484;48.736;9.332;2023-09-30T07:01:32;16.50;1.00
20650;DHT22;10484;48.736;9.332;2023-09-30T07:03:57;16.60;1.00
20650;DHT22;10484;48.736;9.332;2023-09-30T07:06:24;16.50;1.00
20650;DHT22;10484;48.736;9.332;2023-09-30T07:08:50;16.60;1.00
20650;DHT22;10484;48.736;9.332;2023-09-30T07:11:15;16.60;1.00
20650;DHT22;10484;48.736;9.332;2023-09-30T07:13:41;16.60;1.00
20650;DHT22;10484;48.736;9.332;2023-09-30T07:16:07;16.60;1.00
20650;DHT22;10484;48.736;9.332;2023-09-30T07:18:32;16.60;1.00
20650;DHT22;10484;48.736;9.332;2023-09-30T07:20:58;16.70;1.00
20650;DHT22;10484;48.736;9.332;2023-09-30T07:23:23;16.70;1.00
20650;DHT22;10484;48.736;9.332;2023-09-30T07:25:49;16.70;1.00
20650;DHT22;10484;48.736;9.332;2023-09-30T07:28:14;16.80;1.00
20650;DHT22;10484;48.736;9.332;2023-09-30T07:30:41;16.80;1.00
20650;DHT22;10484;48.736;9.332;2023-09-30T07:33:07;16.80;1.00
20650;DHT22;10484;48.736;9.332;2023-09-30T07:35:33;16.80;1.00
20650;DHT22;10484;48.736;9.332;2023-09-30T07:37:59;16.80;1.00
20650;DHT22;10484;48.736;9.332;2023-09-30T07:40:24;16.90;1.00
20650;DHT22;10484;48.736;9.332;2023-09-30T07:42:50;16.90;1.00
20650;DHT22;10484;48.736;9.332;2023-09-30T07:45:16;16.90;1.00
20650;DHT22;10484;48.736;9.332;2023-09-30T07:47:44;16.90;1.00
20650;DHT22;10484;48.736;9.332;2023-09-30T07:50:11;17.00;1.00
20650;DHT22;10484;48.736;9.332;2023-09-30T07:52:38;17.00;1.00
20650;DHT22;10484;48.736;9.332;2023-09-30T07:55:05;17.10;1.00
20650;DHT22;10484;48.736;9.332;2023-09-30T07:57:30;17.10;1.00
20650;DHT22;10484;48.736;9.332;2023-09-30T07:59:56;17.10;1.00
20650;DHT22;10484;48.736;9.332;2023-09-30T08:02:22;17.20;1.00
20650;DHT22;10484;48.736;9.332;2023-09-30T08:04:48;17.20;1.00
20650;DHT22;10484;48.736;9.332;2023-09-30T08:07:13;17.20;1.00
20650;DHT22;10484;48.736;9.332;2023-09-30T08:09:39;17.20;1.00
20650;DHT22;10484;48.736;9.332;2023-09-30T08:12:05;17.20;1.00
20650;DHT22;10484;48.736;9.332;2023-09-30T08:14:31;17.20;1.00
20650;DHT22;10484;48.736;9.332;2023-09-30T08:16:57;17.30;1.00
20650;DHT22;10484;48.736;9.332;2023-09-30T08:19:23;17.30;1.00
20650;DHT22;10484;48.736;9.332;2023-09-30T08:21:48;17.30;1.00
20650;DHT22;10484;48.736;9.332;2023-09-30T08:24:14;17.30;1.00
20650;DHT22;10484;48.736;9.332;2023-09-30T08:26:40;17.40;1.00
20650;DHT22;10484;48.736;9.332;2023-09-30T08:29:06;17.40;1.00
20650;DHT22;10484;48.736;9.332;2023-09-30T08:31:32;17.50;1.00
20650;DHT22;10484;48.736;9.332;2023-09-30T08:33:58;17.60;1.00
20650;DHT22;10484;48.736;9.332;2023-09-30T08:36:23;17.70;1.00
20650;DHT22;10484;48.736;9.332;2023-09-30T08:38:50;17.80;1.00
20650;DHT22;10484;48.736;9.332;2023-09-30T08:41:31;17.80;1.00
20650;DHT22;10484;48.736;9.332;2023-09-30T08:44:00;17.90;1.00
20650;DHT22;10484;48.736;9.332;2023-09-30T08:46:32;18.00;1.00
20650;DHT22;10484;48.736;9.332;2023-09-30T08:49:01;18.00;1.00
20650;DHT22;10484;48.736;9.332;2023-09-30T08:51:29;18.10;1.00
20650;DHT22;10484;48.736;9.332;2023-09-30T08:53:55;18.10;1.00
20650;DHT22;10484;48.736;9.332;2023-09-30T08:56:27;18.10;1.00
20650;DHT22;10484;48.736;9.332;2023-09-30T08:58:58;18.20;1.00
20650;DHT22;10484;48.736;9.332;2023-09-30T09:01:25;18.20;1.00
20650;DHT22;10484;48.736;9.332;2023-09-30T09:03:51;18.30;1.00
20650;DHT22;10484;48.736;9.332;2023-09-30T09:06:22;18.40;1.00
20650;DHT22;10484;48.736;9.332;2023-09-30T09:08:48;18.40;1.00
20650;DHT22;10484;48.736;9.332;2023-09-30T09:11:13;18.50;1.00
20650;DHT22;10484;48.736;9.332;2023-09-30T09:13:51;18.50;1.00
20650;DHT22;10484;48.736;9.332;2023-09-30T09:16:18;18.60;1.00
20650;DHT22;10484;48.736;9.332;2023-09-30T09:18:44;18.70;1.00
20650;DHT22;10484;48.736;9.332;2023-09-30T09:21:17;18.70;1.00
20650;DHT22;10484;48.736;9.332;2023-09-30T09:23:44;18.80;1.00
20650;DHT22;10484;48.736;9.332;2023-09-30T09:26:11;18.80;1.00
20650;DHT22;10484;48.736;9.332;2023-09-30T09:28:38;18.90;1.00
20650;DHT22;10484;48.736;9.332;2023-09-30T09:31:31;18.90;1.00
20650;DHT22;10484;48.736;9.332;2023-09-30T09:33:57;18.90;1.00
20650;DHT22;10484;48.736;9.332;2023-09-30T09:36:41;19.00;1.00
20650;DHT22;10484;48.736;9.332;2023-09-30T09:39:08;19.10;1.00
20650;DHT22;10484;48.736;9.332;2023-09-30T09:41:52;19.20;1.00
20650;DHT22;10484;48.736;9.332;2023-09-30T09:44:22;19.20;1.00
20650;DHT22;10484;48.736;9.332;2023-09-30T09:46:48;19.30;1.00
20650;DHT22;10484;48.736;9.332;2023-09-30T09:49:16;19.40;1.00
20650;DHT22;10484;48.736;9.332;2023-09-30T09:51:43;19.40;1.00
20650;DHT22;10484;48.736;9.332;2023-09-30T09:54:11;19.50;1.00
20650;DHT22;10484;48.736;9.332;2023-09-30T09:56:38;19.60;1.00
20650;DHT22;10484;48.736;9.332;2023-09-30T09:59:04;19.60;1.00
20650;DHT22;10484;48.736;9.332;2023-09-30T10:01:33;19.70;1.00
20650;DHT22;10484;48.736;9.332;2023-09-30T10:04:00;19.80;1.00
20650;DHT22;10484;48.736;9.332;2023-09-30T10:06:27;19.90;1.00
20650;DHT22;10484;48.736;9.332;2023-09-30T10:08:54;19.90;1.00
20650;DHT22;10484;48.736;9.332;2023-09-30T10:11:22;20.00;1.00
20650;DHT22;10484;48.736;9.332;2023-09-30T10:19:16;20.20;1.00
20650;DHT22;10484;48.736;9.332;2023-09-30T10:24:45;20.30;1.00
20650;DHT22;10484;48.736;9.332;2023-09-30T10:40:47;20.60;1.00
20650;DHT22;10484;48.736;9.332;2023-09-30T10:43:31;20.70;1.00
20650;DHT22;10484;48.736;9.332;2023-09-30T10:45:57;20.80;1.00
20650;DHT22;10484;48.736;9.332;2023-09-30T10:51:01;21.00;1.00
20650;DHT22;10484;48.736;9.332;2023-09-30T10:53:29;21.00;1.00
20650;DHT22;10484;48.736;9.332;2023-09-30T10:55:59;21.10;1.00
20650;DHT22;10484;48.736;9.332;2023-09-30T10:58:48;21.20;1.00
20650;DHT22;10484;48.736;9.332;2023-09-30T11:01:18;21.30;1.00
20650;DHT22;10484;48.736;9.332;2023-09-30T11:03:45;21.30;1.00
20650;DHT22;10484;48.736;9.332;2023-09-30T11:06:16;21.30;1.00
20650;DHT22;10484;48.736;9.332;2023-09-30T11:08:57;21.20;1.00
20650;DHT22;10484;48.736;9.332;2023-09-30T11:11:45;21.10;1.00
20650;DHT22;10484;48.736;9.332;2023-09-30T11:16:46;21.10;1.00
20650;DHT22;10484;48.736;9.332;2023-09-30T11:19:12;21.10;1.00
20650;DHT22;10484;48.736;9.332;2023-09-30T11:21:39;21.10;1.00
20650;DHT22;10484;48.736;9.332;2023-09-30T11:24:06;21.20;1.00
20650;DHT22;10484;48.736;9.332;2023-09-30T11:26:32;21.20;1.00
20650;DHT22;10484;48.736;9.332;2023-09-30T11:31:31;21.40;1.00
20650;DHT22;10484;48.736;9.332;2023-09-30T11:33:59;21.40;1.00
20650;DHT22;10484;48.736;9.332;2023-09-30T11:36:30;21.40;1.00
20650;DHT22;10484;48.736;9.332;2023-09-30T11:38:58;21.50;1.00
20650;DHT22;10484;48.736;9.332;2023-09-30T11:41:35;21.50;1.00
20650;DHT22;10484;48.736;9.332;2023-09-30T11:44:09;21.60;1.00
20650;DHT22;10484;48.736;9.332;2023-09-30T11:46:55;21.70;1.00
20650;DHT22;10484;48.736;9.332;2023-09-30T11:51:56;21.80;1.00
20650;DHT22;10484;48.736;9.332;2023-09-30T11:54:21;21.80;1.00
20650;DHT22;10484;48.736;9.332;2023-09-30T11:56:48;21.80;1.00
20650;DHT22;10484;48.736;9.332;2023-09-30T11:59:16;21.90;1.00
20650;DHT22;10484;48.736;9.332;2023-09-30T12:01:42;21.90;1.00
20650;DHT22;10484;48.736;9.332;2023-09-30T12:04:08;22.00;1.00
20650;DHT22;10484;48.736;9.332;2023-09-30T12:06:34;22.00;1.00
20650;DHT22;10484;48.736;9.332;2023-09-30T12:09:01;22.10;1.00
20650;DHT22;10484;48.736;9.332;2023-09-30T12:11:28;22.20;1.00
20650;DHT22;10484;48.736;9.332;2023-09-30T12:13:54;22.20;1.00
20650;DHT22;10484;48.736;9.332;2023-09-30T12:16:20;22.10;1.00
20650;DHT22;10484;48.736;9.332;2023-09-30T12:18:46;22.10;1.00
20650;DHT22;10484;48.736;9.332;2023-09-30T12:21:12;22.10;1.00
20650;DHT22;10484;48.736;9.332;2023-09-30T12:23:45;22.10;1.00
20650;DHT22;10484;48.736;9.332;2023-09-30T12:26:11;22.20;1.00
20650;DHT22;10484;48.736;9.332;2023-09-30T12:28:37;22.30;1.00
20650;DHT22;10484;48.736;9.332;2023-09-30T12:31:03;22.30;1.00
20650;DHT22;10484;48.736;9.332;2023-09-30T12:33:30;22.40;1.00
20650;DHT22;10484;48.736;9.332;2023-09-30T12:35:57;22.40;1.00
20650;DHT22;10484;48.736;9.332;2023-09-30T12:38:25;22.50;1.00
20650;DHT22;10484;48.736;9.332;2023-09-30T12:40:52;22.50;1.00
20650;DHT22;10484;48.736;9.332;2023-09-30T12:43:18;22.50;1.00
20650;DHT22;10484;48.736;9.332;2023-09-30T12:45:44;22.50;1.00
20650;DHT22;10484;48.736;9.332;2023-09-30T12:48:10;22.60;1.00
20650;DHT22;10484;48.736;9.332;2023-09-30T12:50:36;22.60;1.00
20650;DHT22;10484;48.736;9.332;2023-09-30T12:53:02;22.60;1.00
20650;DHT22;10484;48.736;9.332;2023-09-30T12:55:27;22.70;1.00
20650;DHT22;10484;48.736;9.332;2023-09-30T12:57:53;22.70;1.00
20650;DHT22;10484;48.736;9.332;2023-09-30T13:00:19;22.70;1.00
20650;DHT22;10484;48.736;9.332;2023-09-30T13:02:47;22.70;1.00
20650;DHT22;10484;48.736;9.332;2023-09-30T13:05:14;22.70;1.00
20650;DHT22;10484;48.736;9.332;2023-09-30T13:07:40;22.70;1.00
20650;DHT22;10484;48.736;9.332;2023-09-30T13:10:06;22.80;1.00
20650;DHT22;10484;48.736;9.332;2023-09-30T13:12:33;22.70;1.00
20650;DHT22;10484;48.736;9.332;2023-09-30T13:14:59;22.80;1.00
20650;DHT22;10484;48.736;9.332;2023-09-30T13:17:25;22.80;1.00
20650;DHT22;10484;48.736;9.332;2023-09-30T13:19:51;22.80;1.00
20650;DHT22;10484;48.736;9.332;2023-09-30T13:22:17;22.70;1.00
20650;DHT22;10484;48.736;9.332;2023-09-30T13:24:43;22.70;1.00
20650;DHT22;10484;48.736;9.332;2023-09-30T13:27:08;22.70;1.00
20650;DHT22;10484;48.736;9.332;2023-09-30T13:29:34;22.70;1.00
20650;DHT22;10484;48.736;9.332;2023-09-30T13:32:01;22.70;1.00
20650;DHT22;10484;48.736;9.332;2023-09-30T13:34:26;22.80;1.00
20650;DHT22;10484;48.736;9.332;2023-09-30T13:36:52;22.80;1.00
20650;DHT22;10484;48.736;9.332;2023-09-30T13:39:17;22.80;1.00
20650;DHT22;10484;48.736;9.332;2023-09-30T13:41:43;22.90;1.00
20650;DHT22;10484;48.736;9.332;2023-09-30T13:44:09;22.90;1.00
20650;DHT22;10484;48.736;9.332;2023-09-30T13:46:37;22.90;1.00
20650;DHT22;10484;48.736;9.332;2023-09-30T13:49:02;22.90;1.00
20650;DHT22;10484;48.736;9.332;2023-09-30T13:51:29;22.90;1.00
20650;DHT22;10484;48.736;9.332;2023-09-30T13:53:54;23.00;1.00
20650;DHT22;10484;48.736;9.332;2023-09-30T13:56:20;23.00;1.00
20650;DHT22;10484;48.736;9.332;2023-09-30T13:58:46;23.10;1.00
20650;DHT22;10484;48.736;9.332;2023-09-30T14:01:15;23.10;1.00
20650;DHT22;10484;48.736;9.332;2023-09-30T14:03:40;23.10;1.00
20650;DHT22;10484;48.736;9.332;2023-09-30T14:06:13;23.10;1.00
20650;DHT22;10484;48.736;9.332;2023-09-30T14:08:40;23.10;1.00
20650;DHT22;10484;48.736;9.332;2023-09-30T14:11:08;22.90;1.00
20650;DHT22;10484;48.736;9.332;2023-09-30T14:13:34;22.90;1.00
20650;DHT22;10484;48.736;9.332;2023-09-30T14:15:59;22.80;1.00
20650;DHT22;10484;48.736;9.332;2023-09-30T14:18:25;22.70;1.00
20650;DHT22;10484;48.736;9.332;2023-09-30T14:20:50;22.70;1.00
20650;DHT22;10484;48.736;9.332;2023-09-30T14:23:16;22.70;1.00
20650;DHT22;10484;48.736;9.332;2023-09-30T14:25:42;22.70;1.00
20650;DHT22;10484;48.736;9.332;2023-09-30T14:28:08;22.70;1.00
20650;DHT22;10484;48.736;9.332;2023-09-30T14:30:33;22.70;1.00
20650;DHT22;10484;48.736;9.332;2023-09-30T14:32:59;22.70;1.00
20650;DHT22;10484;48.736;9.332;2023-09-30T14:35:24;22.70;1.00
20650;DHT22;10484;48.736;9.332;2023-09-30T14:37:50;22.80;1.00
20650;DHT22;10484;48.736;9.332;2023-09-30T14:40:19;22.70;1.00
20650;DHT22;10484;48.736;9.332;2023-09-30T14:42:45;22.70;1.00
20650;DHT22;10484;48.736;9.332;2023-09-30T14:45:10;22.60;1.00
20650;DHT22;10484;48.736;9.332;2023-09-30T14:47:36;22.60;1.00
20650;DHT22;10484;48.736;9.332;2023-09-30T14:50:02;22.60;1.00
20650;DHT22;10484;48.736;9.332;2023-09-30T14:52:28;22.60;1.00
20650;DHT22;10484;48.736;9.332;2023-09-30T14:54:54;22.50;1.00
20650;DHT22;10484;48.736;9.332;2023-09-30T14:57:20;22.60;1.00
20650;DHT22;10484;48.736;9.332;2023-09-30T14:59:46;22.60;1.00
20650;DHT22;10484;48.736;9.332;2023-09-30T15:02:12;22.60;1.00
20650;DHT22;10484;48.736;9.332;2023-09-30T15:04:39;22.50;1.00
20650;DHT22;10484;48.736;9.332;2023-09-30T15:07:04;22.50;1.00
20650;DHT22;10484;48.736;9.332;2023-09-30T15:09:31;22.50;1.00
20650;DHT22;10484;48.736;9.332;2023-09-30T15:11:56;22.50;1.00
20650;DHT22;10484;48.736;9.332;2023-09-30T15:14:23;22.50;1.00
20650;DHT22;10484;48.736;9.332;2023-09-30T15:16:49;22.50;1.00
20650;DHT22;10484;48.736;9.332;2023-09-30T15:19:14;22.40;1.00
20650;DHT22;10484;48.736;9.332;2023-09-30T15:21:40;22.50;1.00
20650;DHT22;10484;48.736;9.332;2023-09-30T15:24:06;22.50;1.00
20650;DHT22;10484;48.736;9.332;2023-09-30T15:26:32;22.40;1.00
20650;DHT22;10484;48.736;9.332;2023-09-30T15:28:58;22.30;1.00
20650;DHT22;10484;48.736;9.332;2023-09-30T15:31:27;22.30;1.00
20650;DHT22;10484;48.736;9.332;2023-09-30T15:33:55;22.20;1.00
20650;DHT22;10484;48.736;9.332;2023-09-30T15:36:21;22.20;1.00
20650;DHT22;10484;48.736;9.332;2023-09-30T15:38:46;22.30;1.00
20650;DHT22;10484;48.736;9.332;2023-09-30T15:41:13;22.30;1.00
20650;DHT22;10484;48.736;9.332;2023-09-30T15:43:39;22.30;1.00
20650;DHT22;10484;48.736;9.332;2023-09-30T15:46:05;22.30;1.00
20650;DHT22;10484;48.736;9.332;2023-09-30T15:48:33;22.20;1.00
20650;DHT22;10484;48.736;9.332;2023-09-30T15:50:59;22.20;1.00
20650;DHT22;10484;48.736;9.332;2023-09-30T15:53:25;22.30;1.00
20650;DHT22;10484;48.736;9.332;2023-09-30T15:55:50;22.30;1.00
20650;DHT22;10484;48.736;9.332;2023-09-30T15:58:16;22.20;1.00
20650;DHT22;10484;48.736;9.332;2023-09-30T16:00:42;22.20;1.00
20650;DHT22;10484;48.736;9.332;2023-09-30T16:03:09;22.20;1.00
20650;DHT22;10484;48.736;9.332;2023-09-30T16:05:37;22.20;1.00
20650;DHT22;10484;48.736;9.332;2023-09-30T16:08:07;22.20;1.00
20650;DHT22;10484;48.736;9.332;2023-09-30T16:10:32;22.30;1.00
20650;DHT22;10484;48.736;9.332;2023-09-30T16:12:58;22.30;1.00
20650;DHT22;10484;48.736;9.332;2023-09-30T16:15:24;22.30;1.00